sensor_id;sensor_type;location;lat;lon;timestamp;temperature;humidity
16267;DHT22;8241;48.786;9.250;2023-05-28T00:00:59;17.20;90.10
16267;DHT22;8241;48.786;9.250;2023-05-28T00:03:26;17.10;90.20
16267;DHT22;8241;48.786;9.250;2023-05-28T00:05:57;17.10;90.30
16267;DHT22;8241;48.786;9.250;2023-05-28T00:08:24;17.00;90.30
16267;DHT22;8241;48.786;9.250;2023-05-28T00:10:51;17.00;90.50
16267;DHT22;8241;48.786;9.250;2023-05-28T00:13:27;16.90;90.50
16267;DHT22;8241;48.786;9.250;2023-05-28T00:15:54;16.80;90.70
16267;DHT22;8241;48.786;9.250;2023-05-28T00:18:23;16.80;90.60
16267;DHT22;8241;48.786;9.250;2023-05-28T00:20:50;16.80;90.60
16267;DHT22;8241;48.786;9.250;2023-05-28T00:23:17;16.80;90.60
16267;DHT22;8241;48.786;9.250;2023-05-28T00:25:46;16.80;90.50
16267;DHT22;8241;48.786;9.250;2023-05-28T00:28:13;16.80;90.60
16267;DHT22;8241;48.786;9.250;2023-05-28T00:30:41;16.80;90.70
16267;DHT22;8241;48.786;9.250;2023-05-28T00:33:08;16.80;90.70
16267;DHT22;8241;48.786;9.250;2023-05-28T00:35:40;16.70;90.90
16267;DHT22;8241;48.786;9.250;2023-05-28T00:38:07;16.70;91.00
16267;DHT22;8241;48.786;9.250;2023-05-28T00:40:34;16.60;90.90
16267;DHT22;8241;48.786;9.250;2023-05-28T00:43:01;16.60;91.00
16267;DHT22;8241;48.786;9.250;2023-05-28T00:45:28;16.60;91.20
16267;DHT22;8241;48.786;9.250;2023-05-28T00:47:55;16.60;91.30
16267;DHT22;8241;48.786;9.250;2023-05-28T00:50:22;16.50;91.30
16267;DHT22;8241;48.786;9.250;2023-05-28T00:52:52;16.40;91.40
16267;DHT22;8241;48.786;9.250;2023-05-28T00:55:22;16.40;91.50
16267;DHT22;8241;48.786;9.250;2023-05-28T00:57:55;16.40;91.60
16267;DHT22;8241;48.786;9.250;2023-05-28T01:00:29;16.30;91.70
16267;DHT22;8241;48.786;9.250;2023-05-28T01:02:58;16.30;91.70
16267;DHT22;8241;48.786;9.250;2023-05-28T01:05:26;16.30;91.60
16267;DHT22;8241;48.786;9.250;2023-05-28T01:07:54;16.30;91.60
16267;DHT22;8241;48.786;9.250;2023-05-28T01:10:22;16.30;91.30
16267;DHT22;8241;48.786;9.250;2023-05-28T01:12:53;16.30;91.30
16267;DHT22;8241;48.786;9.250;2023-05-28T01:15:22;16.30;91.40
16267;DHT22;8241;48.786;9.250;2023-05-28T01:17:55;16.20;91.40
16267;DHT22;8241;48.786;9.250;2023-05-28T01:20:24;16.20;91.50
16267;DHT22;8241;48.786;9.250;2023-05-28T01:22:55;16.20;91.50
16267;DHT22;8241;48.786;9.250;2023-05-28T01:25:26;16.20;91.50
16267;DHT22;8241;48.786;9.250;2023-05-28T01:27:59;16.10;91.60
16267;DHT22;8241;48.786;9.250;2023-05-28T01:30:27;16.00;91.70
16267;DHT22;8241;48.786;9.250;2023-05-28T01:32:54;16.00;91.80
16267;DHT22;8241;48.786;9.250;2023-05-28T01:35:21;15.90;91.80
16267;DHT22;8241;48.786;9.250;2023-05-28T01:37:51;15.90;92.00
16267;DHT22;8241;48.786;9.250;2023-05-28T01:40:25;15.80;92.40
16267;DHT22;8241;48.786;9.250;2023-05-28T01:42:54;15.80;92.10
16267;DHT22;8241;48.786;9.250;2023-05-28T01:45:28;15.70;92.20
16267;DHT22;8241;48.786;9.250;2023-05-28T01:47:58;15.70;92.30
16267;DHT22;8241;48.786;9.250;2023-05-28T01:50:25;15.70;92.30
16267;DHT22;8241;48.786;9.250;2023-05-28T01:52:57;15.60;92.30
16267;DHT22;8241;48.786;9.250;2023-05-28T01:55:26;15.60;92.80
16267;DHT22;8241;48.786;9.250;2023-05-28T01:57:53;15.60;92.50
16267;DHT22;8241;48.786;9.250;2023-05-28T02:00:26;15.60;92.50
16267;DHT22;8241;48.786;9.250;2023-05-28T02:02:55;15.60;92.40
16267;DHT22;8241;48.786;9.250;2023-05-28T02:05:22;15.60;92.50
16267;DHT22;8241;48.786;9.250;2023-05-28T02:07:51;15.50;92.60
16267;DHT22;8241;48.786;9.250;2023-05-28T02:10:21;15.50;92.60
16267;DHT22;8241;48.786;9.250;2023-05-28T02:12:49;15.50;92.70
16267;DHT22;8241;48.786;9.250;2023-05-28T02:15:16;15.40;92.70
16267;DHT22;8241;48.786;9.250;2023-05-28T02:17:43;15.40;92.90
16267;DHT22;8241;48.786;9.250;2023-05-28T02:20:12;15.40;93.10
16267;DHT22;8241;48.786;9.250;2023-05-28T02:22:47;15.30;93.20
16267;DHT22;8241;48.786;9.250;2023-05-28T02:25:14;15.30;93.50
16267;DHT22;8241;48.786;9.250;2023-05-28T02:27:42;15.30;93.50
16267;DHT22;8241;48.786;9.250;2023-05-28T02:30:12;15.30;93.50
16267;DHT22;8241;48.786;9.250;2023-05-28T02:32:39;15.30;93.70
16267;DHT22;8241;48.786;9.250;2023-05-28T02:35:08;15.30;93.80
16267;DHT22;8241;48.786;9.250;2023-05-28T02:37:35;15.30;93.90
16267;DHT22;8241;48.786;9.250;2023-05-28T02:40:07;15.30;94.00
16267;DHT22;8241;48.786;9.250;2023-05-28T02:42:36;15.20;94.00
16267;DHT22;8241;48.786;9.250;2023-05-28T02:45:03;15.20;94.20
16267;DHT22;8241;48.786;9.250;2023-05-28T02:47:34;15.20;94.20
16267;DHT22;8241;48.786;9.250;2023-05-28T02:50:01;15.10;94.30
16267;DHT22;8241;48.786;9.250;2023-05-28T02:52:36;15.10;94.30
16267;DHT22;8241;48.786;9.250;2023-05-28T02:55:04;15.00;94.40
16267;DHT22;8241;48.786;9.250;2023-05-28T02:57:31;15.00;94.40
16267;DHT22;8241;48.786;9.250;2023-05-28T03:00:03;15.00;94.50
16267;DHT22;8241;48.786;9.250;2023-05-28T03:02:36;14.90;94.50
16267;DHT22;8241;48.786;9.250;2023-05-28T03:05:03;14.90;94.50
16267;DHT22;8241;48.786;9.250;2023-05-28T03:07:31;14.90;94.60
16267;DHT22;8241;48.786;9.250;2023-05-28T03:09:59;14.90;94.70
16267;DHT22;8241;48.786;9.250;2023-05-28T03:12:26;14.80;94.70
16267;DHT22;8241;48.786;9.250;2023-05-28T03:14:53;14.80;94.70
16267;DHT22;8241;48.786;9.250;2023-05-28T03:17:20;14.80;94.70
16267;DHT22;8241;48.786;9.250;2023-05-28T03:19:48;14.80;94.70
16267;DHT22;8241;48.786;9.250;2023-05-28T03:22:19;14.80;94.70
16267;DHT22;8241;48.786;9.250;2023-05-28T03:24:46;14.80;94.80
16267;DHT22;8241;48.786;9.250;2023-05-28T03:27:18;14.70;94.80
16267;DHT22;8241;48.786;9.250;2023-05-28T03:29:45;14.70;94.80
16267;DHT22;8241;48.786;9.250;2023-05-28T03:32:20;14.70;94.80
16267;DHT22;8241;48.786;9.250;2023-05-28T03:34:48;14.70;94.90
16267;DHT22;8241;48.786;9.250;2023-05-28T03:37:20;14.70;94.90
16267;DHT22;8241;48.786;9.250;2023-05-28T03:39:48;14.60;94.80
16267;DHT22;8241;48.786;9.250;2023-05-28T03:42:15;14.70;94.90
16267;DHT22;8241;48.786;9.250;2023-05-28T03:44:42;14.70;94.90
16267;DHT22;8241;48.786;9.250;2023-05-28T03:47:12;14.70;94.90
16267;DHT22;8241;48.786;9.250;2023-05-28T03:49:39;14.70;94.90
16267;DHT22;8241;48.786;9.250;2023-05-28T03:52:07;14.70;94.90
16267;DHT22;8241;48.786;9.250;2023-05-28T03:54:47;14.70;95.10
16267;DHT22;8241;48.786;9.250;2023-05-28T03:57:14;14.60;95.00
16267;DHT22;8241;48.786;9.250;2023-05-28T03:59:44;14.60;95.20
16267;DHT22;8241;48.786;9.250;2023-05-28T04:02:11;14.50;95.30
16267;DHT22;8241;48.786;9.250;2023-05-28T04:04:38;14.60;95.30
16267;DHT22;8241;48.786;9.250;2023-05-28T04:07:06;14.60;95.30
16267;DHT22;8241;48.786;9.250;2023-05-28T04:09:34;14.50;95.40
16267;DHT22;8241;48.786;9.250;2023-05-28T04:12:01;14.60;95.40
16267;DHT22;8241;48.786;9.250;2023-05-28T04:14:29;14.60;95.40
16267;DHT22;8241;48.786;9.250;2023-05-28T04:16:56;14.60;95.40
16267;DHT22;8241;48.786;9.250;2023-05-28T04:19:23;14.60;95.40
16267;DHT22;8241;48.786;9.250;2023-05-28T04:21:50;14.60;95.30
16267;DHT22;8241;48.786;9.250;2023-05-28T04:24:18;14.50;95.40
16267;DHT22;8241;48.786;9.250;2023-05-28T04:26:45;14.50;95.40
16267;DHT22;8241;48.786;9.250;2023-05-28T04:29:13;14.60;95.50
16267;DHT22;8241;48.786;9.250;2023-05-28T04:31:41;14.70;95.50
16267;DHT22;8241;48.786;9.250;2023-05-28T04:34:10;14.70;95.40
16267;DHT22;8241;48.786;9.250;2023-05-28T04:36:37;14.80;95.40
16267;DHT22;8241;48.786;9.250;2023-05-28T04:39:04;14.80;95.30
16267;DHT22;8241;48.786;9.250;2023-05-28T04:41:32;14.80;95.30
16267;DHT22;8241;48.786;9.250;2023-05-28T04:43:59;14.80;95.30
16267;DHT22;8241;48.786;9.250;2023-05-28T04:46:29;14.80;95.40
16267;DHT22;8241;48.786;9.250;2023-05-28T04:48:56;14.90;95.40
16267;DHT22;8241;48.786;9.250;2023-05-28T04:51:24;14.90;95.40
16267;DHT22;8241;48.786;9.250;2023-05-28T04:53:51;15.00;95.30
16267;DHT22;8241;48.786;9.250;2023-05-28T04:56:17;15.00;95.20
16267;DHT22;8241;48.786;9.250;2023-05-28T04:58:47;14.90;94.90
16267;DHT22;8241;48.786;9.250;2023-05-28T05:01:14;14.90;94.70
16267;DHT22;8241;48.786;9.250;2023-05-28T05:03:42;14.90;94.70
16267;DHT22;8241;48.786;9.250;2023-05-28T05:06:09;14.80;94.70
16267;DHT22;8241;48.786;9.250;2023-05-28T05:08:37;14.60;94.80
16267;DHT22;8241;48.786;9.250;2023-05-28T05:11:04;14.50;94.90
16267;DHT22;8241;48.786;9.250;2023-05-28T05:13:32;14.50;95.00
16267;DHT22;8241;48.786;9.250;2023-05-28T05:16:00;14.50;95.00
16267;DHT22;8241;48.786;9.250;2023-05-28T05:18:28;14.60;95.40
16267;DHT22;8241;48.786;9.250;2023-05-28T05:20:55;14.70;95.10
16267;DHT22;8241;48.786;9.250;2023-05-28T05:23:23;14.80;94.80
16267;DHT22;8241;48.786;9.250;2023-05-28T05:25:50;14.90;94.70
16267;DHT22;8241;48.786;9.250;2023-05-28T05:28:17;14.90;94.10
16267;DHT22;8241;48.786;9.250;2023-05-28T05:30:45;14.90;94.50
16267;DHT22;8241;48.786;9.250;2023-05-28T05:33:14;14.90;94.50
16267;DHT22;8241;48.786;9.250;2023-05-28T05:36:06;15.00;94.40
16267;DHT22;8241;48.786;9.250;2023-05-28T05:38:43;15.20;94.30
16267;DHT22;8241;48.786;9.250;2023-05-28T05:41:30;15.30;94.60
16267;DHT22;8241;48.786;9.250;2023-05-28T05:44:16;15.40;94.20
16267;DHT22;8241;48.786;9.250;2023-05-28T05:46:43;15.50;94.00
16267;DHT22;8241;48.786;9.250;2023-05-28T05:49:12;15.50;94.20
16267;DHT22;8241;48.786;9.250;2023-05-28T05:51:39;15.60;93.80
16267;DHT22;8241;48.786;9.250;2023-05-28T05:54:06;15.60;93.80
16267;DHT22;8241;48.786;9.250;2023-05-28T05:56:34;15.70;93.60
16267;DHT22;8241;48.786;9.250;2023-05-28T05:59:01;15.90;93.20
16267;DHT22;8241;48.786;9.250;2023-05-28T06:01:29;16.10;93.00
16267;DHT22;8241;48.786;9.250;2023-05-28T06:03:59;16.30;93.00
16267;DHT22;8241;48.786;9.250;2023-05-28T06:06:46;16.50;93.00
16267;DHT22;8241;48.786;9.250;2023-05-28T06:09:32;16.70;92.30
16267;DHT22;8241;48.786;9.250;2023-05-28T06:12:08;17.00;91.70
16267;DHT22;8241;48.786;9.250;2023-05-28T06:14:35;17.10;91.50
16267;DHT22;8241;48.786;9.250;2023-05-28T06:17:02;17.30;91.60
16267;DHT22;8241;48.786;9.250;2023-05-28T06:19:29;17.60;91.10
16267;DHT22;8241;48.786;9.250;2023-05-28T06:21:57;17.80;90.30
16267;DHT22;8241;48.786;9.250;2023-05-28T06:24:24;18.10;89.60
16267;DHT22;8241;48.786;9.250;2023-05-28T06:26:52;18.40;88.50
16267;DHT22;8241;48.786;9.250;2023-05-28T06:29:18;18.70;87.00
16267;DHT22;8241;48.786;9.250;2023-05-28T06:31:46;18.90;85.80
16267;DHT22;8241;48.786;9.250;2023-05-28T06:34:15;19.10;85.40
16267;DHT22;8241;48.786;9.250;2023-05-28T06:36:42;19.30;85.20
16267;DHT22;8241;48.786;9.250;2023-05-28T06:39:11;19.40;82.80
16267;DHT22;8241;48.786;9.250;2023-05-28T06:41:41;19.40;82.60
16267;DHT22;8241;48.786;9.250;2023-05-28T06:44:19;19.50;82.90
16267;DHT22;8241;48.786;9.250;2023-05-28T06:46:54;19.70;82.10
16267;DHT22;8241;48.786;9.250;2023-05-28T06:49:22;20.10;80.40
16267;DHT22;8241;48.786;9.250;2023-05-28T06:51:49;20.40;78.90
16267;DHT22;8241;48.786;9.250;2023-05-28T06:54:18;20.90;77.30
16267;DHT22;8241;48.786;9.250;2023-05-28T06:56:45;21.50;75.00
16267;DHT22;8241;48.786;9.250;2023-05-28T06:59:31;21.80;73.90
16267;DHT22;8241;48.786;9.250;2023-05-28T07:02:17;22.50;73.90
16267;DHT22;8241;48.786;9.250;2023-05-28T07:04:55;23.30;71.00
16267;DHT22;8241;48.786;9.250;2023-05-28T07:07:29;24.00;68.90
16267;DHT22;8241;48.786;9.250;2023-05-28T07:10:00;24.60;68.00
16267;DHT22;8241;48.786;9.250;2023-05-28T07:12:29;25.10;66.90
16267;DHT22;8241;48.786;9.250;2023-05-28T07:14:58;25.70;65.20
16267;DHT22;8241;48.786;9.250;2023-05-28T07:17:28;26.10;64.60
16267;DHT22;8241;48.786;9.250;2023-05-28T07:19:56;26.30;63.80
16267;DHT22;8241;48.786;9.250;2023-05-28T07:22:39;26.60;63.20
16267;DHT22;8241;48.786;9.250;2023-05-28T07:25:08;26.80;63.20
16267;DHT22;8241;48.786;9.250;2023-05-28T07:27:35;27.00;62.60
16267;DHT22;8241;48.786;9.250;2023-05-28T07:30:03;26.80;62.90
16267;DHT22;8241;48.786;9.250;2023-05-28T07:32:30;26.80;63.90
16267;DHT22;8241;48.786;9.250;2023-05-28T07:35:01;26.80;64.30
16267;DHT22;8241;48.786;9.250;2023-05-28T07:37:30;26.90;63.50
16267;DHT22;8241;48.786;9.250;2023-05-28T07:39:59;27.00;63.90
16267;DHT22;8241;48.786;9.250;2023-05-28T07:42:27;27.00;62.10
16267;DHT22;8241;48.786;9.250;2023-05-28T07:45:01;26.80;62.70
16267;DHT22;8241;48.786;9.250;2023-05-28T07:47:29;26.70;63.30
16267;DHT22;8241;48.786;9.250;2023-05-28T07:50:15;27.00;62.90
16267;DHT22;8241;48.786;9.250;2023-05-28T07:52:52;27.30;62.70
16267;DHT22;8241;48.786;9.250;2023-05-28T07:55:20;27.60;62.40
16267;DHT22;8241;48.786;9.250;2023-05-28T07:57:48;27.60;61.50
16267;DHT22;8241;48.786;9.250;2023-05-28T08:00:16;28.00;61.20
16267;DHT22;8241;48.786;9.250;2023-05-28T08:02:52;28.50;60.10
16267;DHT22;8241;48.786;9.250;2023-05-28T08:05:26;29.10;59.50
16267;DHT22;8241;48.786;9.250;2023-05-28T08:07:54;30.00;58.10
16267;DHT22;8241;48.786;9.250;2023-05-28T08:10:20;30.50;57.20
16267;DHT22;8241;48.786;9.250;2023-05-28T08:12:49;31.00;56.90
16267;DHT22;8241;48.786;9.250;2023-05-28T08:15:18;31.40;56.10
16267;DHT22;8241;48.786;9.250;2023-05-28T08:17:45;31.40;56.10
16267;DHT22;8241;48.786;9.250;2023-05-28T08:20:16;31.60;56.30
16267;DHT22;8241;48.786;9.250;2023-05-28T08:22:52;31.90;56.20
16267;DHT22;8241;48.786;9.250;2023-05-28T08:25:21;32.10;55.80
16267;DHT22;8241;48.786;9.250;2023-05-28T08:27:52;32.20;56.30
16267;DHT22;8241;48.786;9.250;2023-05-28T08:30:19;32.30;54.80
16267;DHT22;8241;48.786;9.250;2023-05-28T08:32:56;32.10;55.00
16267;DHT22;8241;48.786;9.250;2023-05-28T08:35:23;31.90;55.90
16267;DHT22;8241;48.786;9.250;2023-05-28T08:37:51;31.60;56.40
16267;DHT22;8241;48.786;9.250;2023-05-28T08:40:49;31.40;56.60
16267;DHT22;8241;48.786;9.250;2023-05-28T08:43:18;31.20;56.90
16267;DHT22;8241;48.786;9.250;2023-05-28T08:45:46;30.80;57.50
16267;DHT22;8241;48.786;9.250;2023-05-28T08:48:14;30.20;57.80
16267;DHT22;8241;48.786;9.250;2023-05-28T08:50:45;29.80;58.50
16267;DHT22;8241;48.786;9.250;2023-05-28T08:53:19;29.20;58.80
16267;DHT22;8241;48.786;9.250;2023-05-28T08:55:46;28.60;60.90
16267;DHT22;8241;48.786;9.250;2023-05-28T08:58:17;28.20;61.40
16267;DHT22;8241;48.786;9.250;2023-05-28T09:00:47;27.70;62.60
16267;DHT22;8241;48.786;9.250;2023-05-28T09:03:37;27.40;63.00
16267;DHT22;8241;48.786;9.250;2023-05-28T09:06:12;27.00;64.70
16267;DHT22;8241;48.786;9.250;2023-05-28T09:08:40;26.70;65.10
16267;DHT22;8241;48.786;9.250;2023-05-28T09:11:10;26.50;66.10
16267;DHT22;8241;48.786;9.250;2023-05-28T09:13:42;26.30;66.60
16267;DHT22;8241;48.786;9.250;2023-05-28T09:16:10;26.10;66.60
16267;DHT22;8241;48.786;9.250;2023-05-28T09:18:37;26.00;65.80
16267;DHT22;8241;48.786;9.250;2023-05-28T09:21:07;25.80;66.30
16267;DHT22;8241;48.786;9.250;2023-05-28T09:23:38;25.70;67.30
16267;DHT22;8241;48.786;9.250;2023-05-28T09:26:23;25.60;67.20
16267;DHT22;8241;48.786;9.250;2023-05-28T09:28:59;25.60;67.10
16267;DHT22;8241;48.786;9.250;2023-05-28T09:31:28;25.60;67.50
16267;DHT22;8241;48.786;9.250;2023-05-28T09:33:59;25.60;67.60
16267;DHT22;8241;48.786;9.250;2023-05-28T09:36:28;25.60;66.80
16267;DHT22;8241;48.786;9.250;2023-05-28T09:38:57;25.40;66.30
16267;DHT22;8241;48.786;9.250;2023-05-28T09:41:25;25.00;66.30
16267;DHT22;8241;48.786;9.250;2023-05-28T09:44:01;24.70;68.80
16267;DHT22;8241;48.786;9.250;2023-05-28T09:46:28;24.80;69.50
16267;DHT22;8241;48.786;9.250;2023-05-28T09:48:56;24.80;65.90
16267;DHT22;8241;48.786;9.250;2023-05-28T09:51:25;24.80;66.60
16267;DHT22;8241;48.786;9.250;2023-05-28T09:53:56;24.80;65.10
16267;DHT22;8241;48.786;9.250;2023-05-28T09:56:25;24.80;65.80
16267;DHT22;8241;48.786;9.250;2023-05-28T09:58:58;24.70;65.30
16267;DHT22;8241;48.786;9.250;2023-05-28T10:01:31;24.90;64.70
16267;DHT22;8241;48.786;9.250;2023-05-28T10:04:04;24.90;65.90
16267;DHT22;8241;48.786;9.250;2023-05-28T10:06:32;25.10;66.90
16267;DHT22;8241;48.786;9.250;2023-05-28T10:09:02;25.20;64.70
16267;DHT22;8241;48.786;9.250;2023-05-28T10:11:32;25.20;65.10
16267;DHT22;8241;48.786;9.250;2023-05-28T10:14:02;25.20;64.40
16267;DHT22;8241;48.786;9.250;2023-05-28T10:16:31;25.10;64.50
16267;DHT22;8241;48.786;9.250;2023-05-28T10:18:59;25.00;64.90
16267;DHT22;8241;48.786;9.250;2023-05-28T10:21:28;25.00;64.90
16267;DHT22;8241;48.786;9.250;2023-05-28T10:23:57;25.00;65.70
16267;DHT22;8241;48.786;9.250;2023-05-28T10:26:24;25.00;65.40
16267;DHT22;8241;48.786;9.250;2023-05-28T10:28:55;24.70;66.30
16267;DHT22;8241;48.786;9.250;2023-05-28T10:31:23;24.70;66.10
16267;DHT22;8241;48.786;9.250;2023-05-28T10:33:52;24.80;66.70
16267;DHT22;8241;48.786;9.250;2023-05-28T10:36:19;24.90;66.00
16267;DHT22;8241;48.786;9.250;2023-05-28T10:38:56;24.80;65.90
16267;DHT22;8241;48.786;9.250;2023-05-28T10:41:24;24.70;65.30
16267;DHT22;8241;48.786;9.250;2023-05-28T10:43:51;24.80;64.90
16267;DHT22;8241;48.786;9.250;2023-05-28T10:46:20;24.80;66.50
16267;DHT22;8241;48.786;9.250;2023-05-28T10:49:11;25.00;68.00
16267;DHT22;8241;48.786;9.250;2023-05-28T10:51:54;25.20;66.70
16267;DHT22;8241;48.786;9.250;2023-05-28T10:54:24;25.30;66.90
16267;DHT22;8241;48.786;9.250;2023-05-28T10:57:10;25.40;66.10
16267;DHT22;8241;48.786;9.250;2023-05-28T10:59:45;25.60;66.50
16267;DHT22;8241;48.786;9.250;2023-05-28T11:02:15;25.60;64.50
16267;DHT22;8241;48.786;9.250;2023-05-28T11:04:44;25.60;66.70
16267;DHT22;8241;48.786;9.250;2023-05-28T11:07:12;25.60;66.00
16267;DHT22;8241;48.786;9.250;2023-05-28T11:09:39;25.80;67.90
16267;DHT22;8241;48.786;9.250;2023-05-28T11:12:07;25.90;67.70
16267;DHT22;8241;48.786;9.250;2023-05-28T11:14:35;26.00;67.70
16267;DHT22;8241;48.786;9.250;2023-05-28T11:17:09;26.10;67.50
16267;DHT22;8241;48.786;9.250;2023-05-28T11:19:45;26.20;66.50
16267;DHT22;8241;48.786;9.250;2023-05-28T11:22:13;26.20;66.50
16267;DHT22;8241;48.786;9.250;2023-05-28T11:24:55;26.10;64.40
16267;DHT22;8241;48.786;9.250;2023-05-28T11:27:25;26.00;64.10
16267;DHT22;8241;48.786;9.250;2023-05-28T11:29:53;25.80;65.30
16267;DHT22;8241;48.786;9.250;2023-05-28T11:32:21;25.80;63.10
16267;DHT22;8241;48.786;9.250;2023-05-28T11:34:50;25.60;60.40
16267;DHT22;8241;48.786;9.250;2023-05-28T11:37:23;25.30;61.70
16267;DHT22;8241;48.786;9.250;2023-05-28T11:39:54;25.30;61.70
16267;DHT22;8241;48.786;9.250;2023-05-28T11:42:23;25.30;61.50
16267;DHT22;8241;48.786;9.250;2023-05-28T11:44:51;25.20;60.60
16267;DHT22;8241;48.786;9.250;2023-05-28T11:47:19;25.30;61.20
16267;DHT22;8241;48.786;9.250;2023-05-28T11:49:46;25.40;61.30
16267;DHT22;8241;48.786;9.250;2023-05-28T11:52:16;25.50;60.40
16267;DHT22;8241;48.786;9.250;2023-05-28T11:54:44;25.60;59.50
16267;DHT22;8241;48.786;9.250;2023-05-28T11:57:19;25.70;59.40
16267;DHT22;8241;48.786;9.250;2023-05-28T11:59:54;25.70;58.60
16267;DHT22;8241;48.786;9.250;2023-05-28T12:02:22;25.80;60.00
16267;DHT22;8241;48.786;9.250;2023-05-28T12:04:55;25.80;59.80
16267;DHT22;8241;48.786;9.250;2023-05-28T12:07:27;25.50;59.90
16267;DHT22;8241;48.786;9.250;2023-05-28T12:10:04;25.50;60.00
16267;DHT22;8241;48.786;9.250;2023-05-28T12:12:32;25.60;60.10
16267;DHT22;8241;48.786;9.250;2023-05-28T12:15:01;25.80;59.60
16267;DHT22;8241;48.786;9.250;2023-05-28T12:17:33;25.90;59.50
16267;DHT22;8241;48.786;9.250;2023-05-28T12:20:04;26.10;60.80
16267;DHT22;8241;48.786;9.250;2023-05-28T12:22:35;26.20;60.30
16267;DHT22;8241;48.786;9.250;2023-05-28T12:25:02;26.40;59.00
16267;DHT22;8241;48.786;9.250;2023-05-28T12:27:29;26.40;59.70
16267;DHT22;8241;48.786;9.250;2023-05-28T12:29:59;26.50;61.60
16267;DHT22;8241;48.786;9.250;2023-05-28T12:32:26;26.60;61.80
16267;DHT22;8241;48.786;9.250;2023-05-28T12:34:53;26.70;60.90
16267;DHT22;8241;48.786;9.250;2023-05-28T12:37:22;26.90;60.90
16267;DHT22;8241;48.786;9.250;2023-05-28T12:39:50;26.80;58.00
16267;DHT22;8241;48.786;9.250;2023-05-28T12:42:17;26.50;58.60
16267;DHT22;8241;48.786;9.250;2023-05-28T12:44:44;26.60;58.90
16267;DHT22;8241;48.786;9.250;2023-05-28T12:47:13;26.60;57.70
16267;DHT22;8241;48.786;9.250;2023-05-28T12:49:40;26.50;58.00
16267;DHT22;8241;48.786;9.250;2023-05-28T12:52:07;26.60;58.10
16267;DHT22;8241;48.786;9.250;2023-05-28T12:54:34;26.80;57.20
16267;DHT22;8241;48.786;9.250;2023-05-28T12:57:02;26.90;57.70
16267;DHT22;8241;48.786;9.250;2023-05-28T12:59:31;27.20;58.30
16267;DHT22;8241;48.786;9.250;2023-05-28T13:01:58;27.50;57.30
16267;DHT22;8241;48.786;9.250;2023-05-28T13:04:25;27.80;56.10
16267;DHT22;8241;48.786;9.250;2023-05-28T13:06:53;28.10;55.70
16267;DHT22;8241;48.786;9.250;2023-05-28T13:09:20;28.20;55.20
16267;DHT22;8241;48.786;9.250;2023-05-28T13:11:47;27.90;56.60
16267;DHT22;8241;48.786;9.250;2023-05-28T13:14:15;27.90;56.60
16267;DHT22;8241;48.786;9.250;2023-05-28T13:16:42;28.00;56.20
16267;DHT22;8241;48.786;9.250;2023-05-28T13:19:09;27.90;56.70
16267;DHT22;8241;48.786;9.250;2023-05-28T13:21:36;27.90;56.90
16267;DHT22;8241;48.786;9.250;2023-05-28T13:24:03;27.90;55.80
16267;DHT22;8241;48.786;9.250;2023-05-28T13:26:34;28.10;55.50
16267;DHT22;8241;48.786;9.250;2023-05-28T13:29:03;28.30;55.20
16267;DHT22;8241;48.786;9.250;2023-05-28T13:31:31;28.60;55.60
16267;DHT22;8241;48.786;9.250;2023-05-28T13:33:58;29.10;54.60
16267;DHT22;8241;48.786;9.250;2023-05-28T13:36:25;29.00;53.90
16267;DHT22;8241;48.786;9.250;2023-05-28T13:38:52;29.00;55.40
16267;DHT22;8241;48.786;9.250;2023-05-28T13:41:22;29.30;56.00
16267;DHT22;8241;48.786;9.250;2023-05-28T13:43:50;29.60;56.40
16267;DHT22;8241;48.786;9.250;2023-05-28T13:46:18;29.50;53.80
16267;DHT22;8241;48.786;9.250;2023-05-28T13:48:47;29.40;55.00
16267;DHT22;8241;48.786;9.250;2023-05-28T13:51:16;29.50;54.70
16267;DHT22;8241;48.786;9.250;2023-05-28T13:53:42;29.50;54.30
16267;DHT22;8241;48.786;9.250;2023-05-28T13:56:11;29.50;54.30
16267;DHT22;8241;48.786;9.250;2023-05-28T13:58:40;29.40;55.30
16267;DHT22;8241;48.786;9.250;2023-05-28T14:01:07;29.40;55.60
16267;DHT22;8241;48.786;9.250;2023-05-28T14:03:34;29.50;56.00
16267;DHT22;8241;48.786;9.250;2023-05-28T14:06:02;29.60;55.80
16267;DHT22;8241;48.786;9.250;2023-05-28T14:08:30;29.50;55.50
16267;DHT22;8241;48.786;9.250;2023-05-28T14:10:56;29.50;55.80
16267;DHT22;8241;48.786;9.250;2023-05-28T14:13:23;29.80;56.80
16267;DHT22;8241;48.786;9.250;2023-05-28T14:15:57;29.90;55.50
16267;DHT22;8241;48.786;9.250;2023-05-28T14:18:23;29.90;56.40
16267;DHT22;8241;48.786;9.250;2023-05-28T14:20:50;29.80;56.10
16267;DHT22;8241;48.786;9.250;2023-05-28T14:23:18;29.50;55.90
16267;DHT22;8241;48.786;9.250;2023-05-28T14:25:45;29.40;56.40
16267;DHT22;8241;48.786;9.250;2023-05-28T14:28:12;29.40;56.60
16267;DHT22;8241;48.786;9.250;2023-05-28T14:30:39;29.10;55.90
16267;DHT22;8241;48.786;9.250;2023-05-28T14:33:08;28.80;55.90
16267;DHT22;8241;48.786;9.250;2023-05-28T14:35:35;28.60;56.80
16267;DHT22;8241;48.786;9.250;2023-05-28T14:38:03;28.50;57.40
16267;DHT22;8241;48.786;9.250;2023-05-28T14:40:33;28.40;57.30
16267;DHT22;8241;48.786;9.250;2023-05-28T14:43:00;28.30;56.10
16267;DHT22;8241;48.786;9.250;2023-05-28T14:45:27;28.20;57.70
16267;DHT22;8241;48.786;9.250;2023-05-28T14:47:54;28.10;57.00
16267;DHT22;8241;48.786;9.250;2023-05-28T14:50:21;27.90;57.60
16267;DHT22;8241;48.786;9.250;2023-05-28T14:52:50;27.90;58.80
16267;DHT22;8241;48.786;9.250;2023-05-28T14:55:18;28.00;58.80
16267;DHT22;8241;48.786;9.250;2023-05-28T14:57:46;27.90;58.20
16267;DHT22;8241;48.786;9.250;2023-05-28T15:00:13;27.80;58.20
16267;DHT22;8241;48.786;9.250;2023-05-28T15:02:41;27.80;58.00
16267;DHT22;8241;48.786;9.250;2023-05-28T15:05:11;27.80;58.50
16267;DHT22;8241;48.786;9.250;2023-05-28T15:07:41;27.60;57.90
16267;DHT22;8241;48.786;9.250;2023-05-28T15:10:08;27.60;58.40
16267;DHT22;8241;48.786;9.250;2023-05-28T15:12:35;27.50;58.10
16267;DHT22;8241;48.786;9.250;2023-05-28T15:15:04;27.50;58.20
16267;DHT22;8241;48.786;9.250;2023-05-28T15:17:31;27.60;58.00
16267;DHT22;8241;48.786;9.250;2023-05-28T15:20:00;27.60;58.40
16267;DHT22;8241;48.786;9.250;2023-05-28T15:22:28;27.60;57.70
16267;DHT22;8241;48.786;9.250;2023-05-28T15:24:55;27.50;58.40
16267;DHT22;8241;48.786;9.250;2023-05-28T15:27:22;27.50;57.80
16267;DHT22;8241;48.786;9.250;2023-05-28T15:29:50;27.40;58.00
16267;DHT22;8241;48.786;9.250;2023-05-28T15:32:19;27.30;58.20
16267;DHT22;8241;48.786;9.250;2023-05-28T15:34:46;27.30;58.20
16267;DHT22;8241;48.786;9.250;2023-05-28T15:37:13;27.30;58.00
16267;DHT22;8241;48.786;9.250;2023-05-28T15:39:40;27.30;58.60
16267;DHT22;8241;48.786;9.250;2023-05-28T15:42:08;27.20;58.40
16267;DHT22;8241;48.786;9.250;2023-05-28T15:44:38;27.20;58.60
16267;DHT22;8241;48.786;9.250;2023-05-28T15:47:05;27.10;58.40
16267;DHT22;8241;48.786;9.250;2023-05-28T15:49:34;27.10;57.80
16267;DHT22;8241;48.786;9.250;2023-05-28T15:52:00;26.90;57.80
16267;DHT22;8241;48.786;9.250;2023-05-28T15:54:28;26.90;58.40
16267;DHT22;8241;48.786;9.250;2023-05-28T15:56:55;26.80;58.10
16267;DHT22;8241;48.786;9.250;2023-05-28T15:59:22;26.80;58.50